Alkor — DBND — position and weather

sailwx.info

Track history (hours):
 
Tides and Currents Weather Stations Pressure Air Temp Water Temp Dewpoint Dewpoint Depression Visibility Wind Speed Wind Dir Waves Ship Positions

Oceanographic research ship Alkor (Germany)

Ship's website: http://www.briese.de/

Detailed information on ship capabilities available from University of Delaware's Ocean Information Center.

Last reported at 2017-Jan-24 11:00 UTC. Time now 2017-Jan-24 19:22 UTC.
Position N 54°24' E 010°12'.

Length 55 m; draft 4.2 m.

Type: Ship. MMSI: 211216512.

Wind from 240 at 8 knots

Barometer 1028.0 mb
Water temperature 4.3 ° C

Date/timePositionNaut miles runAvg speedWind from/ knotsBaromVisibWave heightAir tempDewpointWater temp
2017-Jan-24 11:00N 54°24' E 010°12'0 0.0 240 / 81028.0 4.3
2017-Jan-24 10:00N 54°24' E 010°12'0 0.0 230 / 61028.0 4.3
2017-Jan-24 09:00N 54°24' E 010°12'0 0.0 240 / 61027.3 1.2 1.2 4.1
2017-Jan-24 08:00N 54°24' E 010°12'0 0.0 240 / 61027.0 1.3 1.3 4.1
2017-Jan-24 07:00N 54°24' E 010°12'0 0.0 250 / 81026.6 1.1 1.1 4.0
2017-Jan-24 06:00N 54°24' E 010°12'0 0.0 240 / 61026.1 1.2 1.2 4.2
2017-Jan-24 05:00N 54°24' E 010°12'0 0.0 240 / 61025.5 1.3 1.3 4.3
2017-Jan-24 04:00N 54°24' E 010°12'0 0.0 220 / 61025.2 1.1 1.1 4.3
2017-Jan-24 03:00N 54°24' E 010°12'0 0.0 220 / 61025.0 1.0 1.0 4.6
2017-Jan-24 02:00N 54°24' E 010°12'0 0.0 210 / 61025.0 1.1 1.1 4.6
2017-Jan-24 01:00N 54°24' E 010°12'0 0.0 220 / 81025.1 0.9 0.9 4.6
2017-Jan-24 00:00N 54°24' E 010°12'0 0.0 240 / 101025.1 0.8 0.8 4.6
2017-Jan-23 23:00N 54°24' E 010°12'0 0.0 230 / 81024.8 0.9 0.9 4.5
2017-Jan-23 22:00N 54°24' E 010°12'0 0.0 230 / 101024.9 1.1 1.1 4.7
2017-Jan-23 21:00N 54°24' E 010°12'0 0.0 230 / 61024.9 1.5 1.5 4.7
2017-Jan-23 20:00N 54°24' E 010°12'0 0.0 230 / 61024.7 1.5 1.1 4.9
2017-Jan-23 19:00N 54°24' E 010°12'0 0.0 240 / 81024.6 1.5 1.0 4.9
2017-Jan-23 18:00N 54°24' E 010°12'0 0.0 220 / 81024.2 1.3 0.8 4.6
2017-Jan-23 17:00N 54°24' E 010°12'0 0.0 220 / 81024.4 1.7 1.2 4.4
2017-Jan-23 16:00N 54°24' E 010°12'0 0.0 230 / 81024.5 1.6 1.0 4.5
2017-Jan-23 15:00N 54°24' E 010°12'0 0.0 230 / 61024.6 1.7 1.1 4.4
2017-Jan-23 14:00N 54°24' E 010°12'0 0.0 230 / 61024.8 1.2 0.6 4.5
2017-Jan-23 13:00N 54°24' E 010°12'0 0.0 250 / 101024.9 0.9-0.1 4.6
2017-Jan-23 12:00N 54°24' E 010°12'0 0.0 240 / 81025.3 0.4-0.4 4.7
2017-Jan-23 11:00N 54°24' E 010°12'0 0.0 240 / 81025.6 0.5-0.5 4.5
2017-Jan-23 10:00N 54°24' E 010°12'0 0.0 230 / 61025.5 0.4-0.4 4.3
2017-Jan-23 09:00N 54°24' E 010°12'0 0.0 230 / 41025.4 -0.0-0.7 3.8
2017-Jan-23 08:00N 54°24' E 010°12'7 6.9 260 / 61025.4 -0.3-0.9 3.5
2017-Jan-23 07:00N 54°18' E 010°06'0 0.0 1025.4 -0.4-0.9 4.5
2017-Jan-23 06:00N 54°18' E 010°06'2 0.7 320 / 41025.8 -0.4-0.9 4.8
2017-Jan-23 02:12N 54°20' E 010°09'0 0.0
2017-Jan-23 01:21N 54°20' E 010°09'0 0.0
2017-Jan-22 22:15N 54°20' E 010°09'0 0.0
2017-Jan-22 21:27N 54°20' E 010°09'0 0.0
2017-Jan-22 20:15N 54°20' E 010°09'0 0.0
2017-Jan-22 14:24N 54°20' E 010°09'0 0.0
2017-Jan-22 05:33N 54°20' E 010°09'0 0.0
2017-Jan-22 04:21N 54°20' E 010°09'0 0.0
2017-Jan-22 03:33N 54°20' E 010°09'  
2017-Jan-17 10:00N 54°18' E 010°12'7 6.9 310 / 41037.7 0.2-0.7 3.2
2017-Jan-17 09:00N 54°24' E 010°06'7 6.9 290 / 41037.3 -0.7-0.9 3.5
2017-Jan-17 08:00N 54°18' E 010°00'9 9.2 1036.8 -2.7-3.0 3.2
2017-Jan-17 07:00N 54°24' E 009°48'7 6.9 1036.4 -2.8-3.0 2.9
2017-Jan-17 06:00N 54°18' E 009°42'0 0.0 1035.9 -4.0-4.8 4.1
2017-Jan-17 05:00N 54°18' E 009°42'0 0.0 340 / 41035.4 -4.2-5.0 3.9
2017-Jan-17 04:00N 54°18' E 009°42'0 0.0 320 / 21034.9 -4.5-5.6 3.6
2017-Jan-17 03:00N 54°18' E 009°42'0 0.0 1034.7 -3.9-5.3 3.4
2017-Jan-17 02:00N 54°18' E 009°42'0 0.0 1034.5 -3.6-5.0 3.6
2017-Jan-17 01:00N 54°18' E 009°42'0 0.0 320 / 41034.1 -3.8-5.0 3.8
2017-Jan-17 00:00N 54°18' E 009°42'4 3.5 310 / 41033.8 -3.6-4.9 3.1
2017-Jan-16 23:00N 54°18' E 009°36'7 6.9 330 / 61033.4 -3.4-4.9 3.1
2017-Jan-16 22:00N 54°12' E 009°30'9 9.2 320 / 41033.2 -3.4-5.2 2.9
2017-Jan-16 21:00N 54°06' E 009°18'4 9.2 1032.9 -3.2-4.4 3.2
2017-Jan-16 20:33N 54°02' E 009°18'2 3.5
2017-Jan-16 20:00N 54°00' E 009°18'614.9 350 / 61032.3 -1.6-3.8 2.9
2017-Jan-16 19:33N 53°55' E 009°11'3 5.6
2017-Jan-16 19:00N 53°54' E 009°06'1 2.2 330 / 61031.6 -1.4-3.4 3.0
2017-Jan-16 18:33N 53°53' E 009°06'1 1.7
2017-Jan-16 18:00N 53°54' E 009°06'614.8 310 / 41030.8 0.3-1.7 2.7
2017-Jan-16 17:33N 53°51' E 008°57'610.2
2017-Jan-16 17:00N 53°48' E 008°48'818.2 030 / 101030.5 0.8-2.2 2.5
2017-Jan-16 16:33N 53°55' E 008°40'814.5
2017-Jan-16 16:00N 54°00' E 008°30'4 9.2 030 / 121030.1 1.3-2.6 3.0
2017-Jan-16 15:33N 53°59' E 008°23'712.3
2017-Jan-16 15:00N 54°00' E 008°12'612.7 040 / 141029.8 2.0-4.1 3.6
2017-Jan-16 14:32N 54°05' E 008°06'713.3
2017-Jan-16 14:00N 54°06' E 007°54'1212.1 030 / 141029.4 1.8-5.1 4.5
2017-Jan-16 13:00N 54°12' E 007°36'1515.3 030 / 101029.2 2.3-3.8 6.1
2017-Jan-16 12:00N 54°18' E 007°12'7 6.9 040 / 81029.3 2.4-3.7 7.0
2017-Jan-16 11:00N 54°24' E 007°06'0 0.0 060 / 61029.2 3.2-3.8 7.0
2017-Jan-16 10:00N 54°24' E 007°06'3 3.5 060 / 81028.9 2.4-4.1 7.1
2017-Jan-16 09:00N 54°24' E 007°00'6 6.0 070 / 81028.5 2.3-3.6 6.8
2017-Jan-16 08:00N 54°18' E 007°00'1312.5 080 / 81027.9 2.0-4.3 6.2
2017-Jan-16 07:00N 54°06' E 006°54'9 9.3 090 / 101027.1 2.0-2.4 5.8
2017-Jan-16 06:00N 54°00' E 006°42'1212.2 070 / 81026.5 2.2-2.2 6.4
2017-Jan-16 05:00N 53°54' E 006°24'1413.9 060 / 101026.0 2.7-3.5 6.6
2017-Jan-16 04:00N 53°42' E 006°12'1110.7 050 / 101025.2 3.2-3.3 6.2
2017-Jan-16 03:00N 53°42' E 005°54'1212.2 050 / 101024.9 3.7-0.9 6.7
2017-Jan-16 02:00N 53°36' E 005°36'1110.7 080 / 81024.7 1.9 0.6 6.7
2017-Jan-16 01:00N 53°36' E 005°18'1212.3 040 / 121024.0 3.5 1.1 7.0
2017-Jan-16 00:00N 53°30' E 005°00'1212.3 360 / 161024.2 4.6-0.1 7.3
2017-Jan-15 23:00N 53°24' E 004°42'1312.5 010 / 61024.1 5.0 1.2 7.3
2017-Jan-15 22:00N 53°12' E 004°36'9 9.4 020 / 121023.7 4.8 1.7 7.3
2017-Jan-15 21:00N 53°06' E 004°24'716.8 320 / 161023.2 4.6 2.1 6.9
2017-Jan-15 20:33N 52°59' E 004°21'5 9.2
2017-Jan-15 20:00N 52°54' E 004°18'916.9 310 / 121023.1 5.1 2.0 7.2
2017-Jan-15 19:29N 52°47' E 004°10'611.2
2017-Jan-15 19:00N 52°42' E 004°06'915.0 290 / 81022.7 4.8 2.7 7.3
2017-Jan-15 18:24N 52°35' E 003°58'512.7
2017-Jan-15 18:00N 52°30' E 003°54'1414.1 260 / 41022.4 4.2 2.3 7.4
2017-Jan-15 17:00N 52°18' E 003°42'1414.1 230 / 61021.9 4.4 2.4 7.4
2017-Jan-15 16:00N 52°06' E 003°30'1414.1 150 / 101021.5 3.5 2.4 7.5
2017-Jan-15 15:00N 51°54' E 003°18'1111.1 250 / 81021.0 4.2 2.6 7.5
2017-Jan-15 14:00N 51°54' E 003°00'10 9.5 240 / 81021.3 3.5 2.1 7.9
2017-Jan-15 13:00N 51°48' E 002°48'7 7.1 250 / 101021.3 3.5 1.4 7.9
2017-Jan-15 12:00N 51°42' E 002°54'1312.7 280 / 101021.4 4.4 1.4 7.3
2017-Jan-15 11:00N 51°48' E 003°12'1312.6 290 / 141021.6 5.5 0.4 7.2
2017-Jan-15 10:00N 51°54' E 003°30'8 9.5 340 / 41021.7 4.0 1.8 7.0
2017-Jan-15 09:09N 51°57' E 003°42'531.1
2017-Jan-15 09:00N 52°00' E 003°48'4 9.5 300 / 81021.3 4.7 0.7 6.6
2017-Jan-15 08:33N 51°58' E 003°54'813.6
2017-Jan-15 08:00N 52°00' E 004°06'614.6 310 / 141020.9 5.3 1.2 5.9
2017-Jan-15 07:33N 52°06' E 004°10'5 8.6
2017-Jan-15 07:00N 52°06' E 004°18'1 2.3 020 / 81020.4 3.1 0.8 6.1
2017-Jan-15 06:29N 52°06' E 004°16'1 2.4
2017-Jan-15 06:00N 52°06' E 004°18'1 2.5 320 / 61019.8 4.0 1.4 6.0
2017-Jan-15 05:32N 52°06' E 004°16'1 2.2
2017-Jan-15 05:00N 52°06' E 004°18'1 2.5 020 / 61019.8 2.6 1.2 6.0
2017-Jan-15 04:32N 52°06' E 004°16'1 2.2
2017-Jan-15 04:00N 52°06' E 004°18'1 2.3 310 / 41019.2 2.6 0.3 5.9
2017-Jan-15 03:29N 52°06' E 004°16'1 2.4
2017-Jan-15 03:00N 52°06' E 004°18'1 2.5 320 / 121019.2 4.7 0.1 6.1
2017-Jan-15 02:32N 52°06' E 004°16'1 2.2
2017-Jan-15 02:00N 52°06' E 004°18'1 2.5 020 / 41019.2 3.5 1.4 6.2
2017-Jan-15 01:32N 52°06' E 004°16'1 2.2
2017-Jan-15 01:00N 52°06' E 004°18'1 2.5 340 / 61018.6 4.3 0.3 6.2
2017-Jan-15 00:32N 52°06' E 004°16'1 2.2
2017-Jan-15 00:00N 52°06' E 004°18'1 2.5 350 / 81018.6 3.0 1.1 6.2
2017-Jan-14 23:32N 52°06' E 004°16'1 2.2
2017-Jan-14 23:00N 52°06' E 004°18'1 2.5 360 / 101018.8 1.8 0.5 6.2
2017-Jan-14 22:32N 52°06' E 004°16'1 2.2
2017-Jan-14 22:00N 52°06' E 004°18'1 2.5 330 / 121017.5 4.9-0.1 6.2
2017-Jan-14 21:32N 52°06' E 004°16'1 2.2
2017-Jan-14 21:00N 52°06' E 004°18'1 2.5 020 / 41017.3 3.5 1.7 6.2
2017-Jan-14 20:32N 52°06' E 004°16'1 2.2
2017-Jan-14 20:00N 52°06' E 004°18'1 2.5 330 / 121017.0 5.0 0.3 6.1
2017-Jan-14 19:32N 52°06' E 004°16'1 2.2
2017-Jan-14 19:00N 52°06' E 004°18'1 2.5 320 / 121016.3 5.1 0.9 6.0
2017-Jan-14 18:32N 52°06' E 004°16'1 2.2
2017-Jan-14 18:00N 52°06' E 004°18'1 2.5 320 / 191016.1 4.0 0.5 5.9
2017-Jan-14 17:32N 52°06' E 004°16'1 2.2
2017-Jan-14 17:00N 52°06' E 004°18'1 2.3 320 / 191015.7 4.7 0.6 6.0
2017-Jan-14 16:29N 52°06' E 004°16'1 2.4
2017-Jan-14 16:00N 52°06' E 004°18'1 2.5 310 / 211014.9 5.0-0.9 6.1
2017-Jan-14 15:32N 52°06' E 004°16'1 2.2
2017-Jan-14 15:00N 52°06' E 004°18'1 2.3 320 / 161014.4 5.5-1.5 6.2
2017-Jan-14 14:29N 52°06' E 004°16'1 2.4
2017-Jan-14 14:00N 52°06' E 004°18'1 2.5 340 / 81014.0 5.4-0.1 6.3
2017-Jan-14 13:32N 52°06' E 004°16'1 2.2
2017-Jan-14 13:00N 52°06' E 004°18'1 2.1 350 / 141013.3 5.1 1.3 6.3
2017-Jan-14 12:26N 52°06' E 004°16'1 2.7
2017-Jan-14 12:00N 52°06' E 004°18'1 2.5 320 / 161012.7 3.2 2.2 6.1
2017-Jan-14 11:32N 52°06' E 004°16'1 2.2
2017-Jan-14 11:00N 52°06' E 004°18'   280 / 161012.5 4.6 1.7 6.3
Track history (hours):
 
Tides and Currents Weather Stations Pressure Air Temp Water Temp Dewpoint Dewpoint Depression Visibility Wind Speed Wind Dir Waves Ship Positions

Oceanographic research ship Alkor (Germany)

Ship's website: http://www.briese.de/

Detailed information on ship capabilities available from University of Delaware's Ocean Information Center.

Last reported at 2017-Jan-24 11:00 UTC. Time now 2017-Jan-24 19:22 UTC.
Position N 54°24' E 010°12'.

Length 55 m; draft 4.2 m.

Type: Ship. MMSI: 211216512.

Wind from 240 at 8 knots

Barometer 1028.0 mb
Water temperature 4.3 ° C

Date/timePositionNaut miles runAvg speedWind from/ knotsBaromVisibWave heightAir tempDewpointWater temp
2017-Jan-24 11:00N 54°24' E 010°12'0 0.0 240 / 81028.0 4.3
2017-Jan-24 10:00N 54°24' E 010°12'0 0.0 230 / 61028.0 4.3
2017-Jan-24 09:00N 54°24' E 010°12'0 0.0 240 / 61027.3 1.2 1.2 4.1
2017-Jan-24 08:00N 54°24' E 010°12'0 0.0 240 / 61027.0 1.3 1.3 4.1
2017-Jan-24 07:00N 54°24' E 010°12'0 0.0 250 / 81026.6 1.1 1.1 4.0
2017-Jan-24 06:00N 54°24' E 010°12'0 0.0 240 / 61026.1 1.2 1.2 4.2
2017-Jan-24 05:00N 54°24' E 010°12'0 0.0 240 / 61025.5 1.3 1.3 4.3
2017-Jan-24 04:00N 54°24' E 010°12'0 0.0 220 / 61025.2 1.1 1.1 4.3
2017-Jan-24 03:00N 54°24' E 010°12'0 0.0 220 / 61025.0 1.0 1.0 4.6
2017-Jan-24 02:00N 54°24' E 010°12'0 0.0 210 / 61025.0 1.1 1.1 4.6
2017-Jan-24 01:00N 54°24' E 010°12'0 0.0 220 / 81025.1 0.9 0.9 4.6
2017-Jan-24 00:00N 54°24' E 010°12'0 0.0 240 / 101025.1 0.8 0.8 4.6
2017-Jan-23 23:00N 54°24' E 010°12'0 0.0 230 / 81024.8 0.9 0.9 4.5
2017-Jan-23 22:00N 54°24' E 010°12'0 0.0 230 / 101024.9 1.1 1.1 4.7
2017-Jan-23 21:00N 54°24' E 010°12'0 0.0 230 / 61024.9 1.5 1.5 4.7
2017-Jan-23 20:00N 54°24' E 010°12'0 0.0 230 / 61024.7 1.5 1.1 4.9
2017-Jan-23 19:00N 54°24' E 010°12'0 0.0 240 / 81024.6 1.5 1.0 4.9
2017-Jan-23 18:00N 54°24' E 010°12'0 0.0 220 / 81024.2 1.3 0.8 4.6
2017-Jan-23 17:00N 54°24' E 010°12'0 0.0 220 / 81024.4 1.7 1.2 4.4
2017-Jan-23 16:00N 54°24' E 010°12'0 0.0 230 / 81024.5 1.6 1.0 4.5
2017-Jan-23 15:00N 54°24' E 010°12'0 0.0 230 / 61024.6 1.7 1.1 4.4
2017-Jan-23 14:00N 54°24' E 010°12'0 0.0 230 / 61024.8 1.2 0.6 4.5
2017-Jan-23 13:00N 54°24' E 010°12'0 0.0 250 / 101024.9 0.9-0.1 4.6
2017-Jan-23 12:00N 54°24' E 010°12'0 0.0 240 / 81025.3 0.4-0.4 4.7
2017-Jan-23 11:00N 54°24' E 010°12'0 0.0 240 / 81025.6 0.5-0.5 4.5
2017-Jan-23 10:00N 54°24' E 010°12'0 0.0 230 / 61025.5 0.4-0.4 4.3
2017-Jan-23 09:00N 54°24' E 010°12'0 0.0 230 / 41025.4 -0.0-0.7 3.8
2017-Jan-23 08:00N 54°24' E 010°12'7 6.9 260 / 61025.4 -0.3-0.9 3.5
2017-Jan-23 07:00N 54°18' E 010°06'0 0.0 1025.4 -0.4-0.9 4.5
2017-Jan-23 06:00N 54°18' E 010°06'2 0.7 320 / 41025.8 -0.4-0.9 4.8
2017-Jan-23 02:12N 54°20' E 010°09'0 0.0
2017-Jan-23 01:21N 54°20' E 010°09'0 0.0
2017-Jan-22 22:15N 54°20' E 010°09'0 0.0
2017-Jan-22 21:27N 54°20' E 010°09'0 0.0
2017-Jan-22 20:15N 54°20' E 010°09'0 0.0
2017-Jan-22 14:24N 54°20' E 010°09'0 0.0
2017-Jan-22 05:33N 54°20' E 010°09'0 0.0
2017-Jan-22 04:21N 54°20' E 010°09'0 0.0
2017-Jan-22 03:33N 54°20' E 010°09'  
2017-Jan-17 10:00N 54°18' E 010°12'7 6.9 310 / 41037.7 0.2-0.7 3.2
2017-Jan-17 09:00N 54°24' E 010°06'7 6.9 290 / 41037.3 -0.7-0.9 3.5
2017-Jan-17 08:00N 54°18' E 010°00'9 9.2 1036.8 -2.7-3.0 3.2
2017-Jan-17 07:00N 54°24' E 009°48'7 6.9 1036.4 -2.8-3.0 2.9
2017-Jan-17 06:00N 54°18' E 009°42'0 0.0 1035.9 -4.0-4.8 4.1
2017-Jan-17 05:00N 54°18' E 009°42'0 0.0 340 / 41035.4 -4.2-5.0 3.9
2017-Jan-17 04:00N 54°18' E 009°42'0 0.0 320 / 21034.9 -4.5-5.6 3.6
2017-Jan-17 03:00N 54°18' E 009°42'0 0.0 1034.7 -3.9-5.3 3.4
2017-Jan-17 02:00N 54°18' E 009°42'0 0.0 1034.5 -3.6-5.0 3.6
2017-Jan-17 01:00N 54°18' E 009°42'0 0.0 320 / 41034.1 -3.8-5.0 3.8
2017-Jan-17 00:00N 54°18' E 009°42'4 3.5 310 / 41033.8 -3.6-4.9 3.1
2017-Jan-16 23:00N 54°18' E 009°36'7 6.9 330 / 61033.4 -3.4-4.9 3.1
2017-Jan-16 22:00N 54°12' E 009°30'9 9.2 320 / 41033.2 -3.4-5.2 2.9
2017-Jan-16 21:00N 54°06' E 009°18'4 9.2 1032.9 -3.2-4.4 3.2
2017-Jan-16 20:33N 54°02' E 009°18'2 3.5
2017-Jan-16 20:00N 54°00' E 009°18'614.9 350 / 61032.3 -1.6-3.8 2.9
2017-Jan-16 19:33N 53°55' E 009°11'3 5.6
2017-Jan-16 19:00N 53°54' E 009°06'1 2.2 330 / 61031.6 -1.4-3.4 3.0
2017-Jan-16 18:33N 53°53' E 009°06'1 1.7
2017-Jan-16 18:00N 53°54' E 009°06'614.8 310 / 41030.8 0.3-1.7 2.7
2017-Jan-16 17:33N 53°51' E 008°57'610.2
2017-Jan-16 17:00N 53°48' E 008°48'818.2 030 / 101030.5 0.8-2.2 2.5
2017-Jan-16 16:33N 53°55' E 008°40'814.5
2017-Jan-16 16:00N 54°00' E 008°30'4 9.2 030 / 121030.1 1.3-2.6 3.0
2017-Jan-16 15:33N 53°59' E 008°23'712.3
2017-Jan-16 15:00N 54°00' E 008°12'612.7 040 / 141029.8 2.0-4.1 3.6
2017-Jan-16 14:32N 54°05' E 008°06'713.3
2017-Jan-16 14:00N 54°06' E 007°54'1212.1 030 / 141029.4 1.8-5.1 4.5
2017-Jan-16 13:00N 54°12' E 007°36'1515.3 030 / 101029.2 2.3-3.8 6.1
2017-Jan-16 12:00N 54°18' E 007°12'7 6.9 040 / 81029.3 2.4-3.7 7.0
2017-Jan-16 11:00N 54°24' E 007°06'0 0.0 060 / 61029.2 3.2-3.8 7.0
2017-Jan-16 10:00N 54°24' E 007°06'3 3.5 060 / 81028.9 2.4-4.1 7.1
2017-Jan-16 09:00N 54°24' E 007°00'6 6.0 070 / 81028.5 2.3-3.6 6.8
2017-Jan-16 08:00N 54°18' E 007°00'1312.5 080 / 81027.9 2.0-4.3 6.2
2017-Jan-16 07:00N 54°06' E 006°54'9 9.3 090 / 101027.1 2.0-2.4 5.8
2017-Jan-16 06:00N 54°00' E 006°42'1212.2 070 / 81026.5 2.2-2.2 6.4
2017-Jan-16 05:00N 53°54' E 006°24'1413.9 060 / 101026.0 2.7-3.5 6.6
2017-Jan-16 04:00N 53°42' E 006°12'1110.7 050 / 101025.2 3.2-3.3 6.2
2017-Jan-16 03:00N 53°42' E 005°54'1212.2 050 / 101024.9 3.7-0.9 6.7
2017-Jan-16 02:00N 53°36' E 005°36'1110.7 080 / 81024.7 1.9 0.6 6.7
2017-Jan-16 01:00N 53°36' E 005°18'1212.3 040 / 121024.0 3.5 1.1 7.0
2017-Jan-16 00:00N 53°30' E 005°00'1212.3 360 / 161024.2 4.6-0.1 7.3
2017-Jan-15 23:00N 53°24' E 004°42'1312.5 010 / 61024.1 5.0 1.2 7.3
2017-Jan-15 22:00N 53°12' E 004°36'9 9.4 020 / 121023.7 4.8 1.7 7.3
2017-Jan-15 21:00N 53°06' E 004°24'716.8 320 / 161023.2 4.6 2.1 6.9
2017-Jan-15 20:33N 52°59' E 004°21'5 9.2
2017-Jan-15 20:00N 52°54' E 004°18'916.9 310 / 121023.1 5.1 2.0 7.2
2017-Jan-15 19:29N 52°47' E 004°10'611.2
2017-Jan-15 19:00N 52°42' E 004°06'915.0 290 / 81022.7 4.8 2.7 7.3
2017-Jan-15 18:24N 52°35' E 003°58'512.7
2017-Jan-15 18:00N 52°30' E 003°54'1414.1 260 / 41022.4 4.2 2.3 7.4
2017-Jan-15 17:00N 52°18' E 003°42'1414.1 230 / 61021.9 4.4 2.4 7.4
2017-Jan-15 16:00N 52°06' E 003°30'1414.1 150 / 101021.5 3.5 2.4 7.5
2017-Jan-15 15:00N 51°54' E 003°18'1111.1 250 / 81021.0 4.2 2.6 7.5
2017-Jan-15 14:00N 51°54' E 003°00'10 9.5 240 / 81021.3 3.5 2.1 7.9
2017-Jan-15 13:00N 51°48' E 002°48'7 7.1 250 / 101021.3 3.5 1.4 7.9
2017-Jan-15 12:00N 51°42' E 002°54'1312.7 280 / 101021.4 4.4 1.4 7.3
2017-Jan-15 11:00N 51°48' E 003°12'1312.6 290 / 141021.6 5.5 0.4 7.2
2017-Jan-15 10:00N 51°54' E 003°30'8 9.5 340 / 41021.7 4.0 1.8 7.0
2017-Jan-15 09:09N 51°57' E 003°42'531.1
2017-Jan-15 09:00N 52°00' E 003°48'4 9.5 300 / 81021.3 4.7 0.7 6.6
2017-Jan-15 08:33N 51°58' E 003°54'813.6
2017-Jan-15 08:00N 52°00' E 004°06'614.6 310 / 141020.9 5.3 1.2 5.9
2017-Jan-15 07:33N 52°06' E 004°10'5 8.6
2017-Jan-15 07:00N 52°06' E 004°18'1 2.3 020 / 81020.4 3.1 0.8 6.1
2017-Jan-15 06:29N 52°06' E 004°16'1 2.4
2017-Jan-15 06:00N 52°06' E 004°18'1 2.5 320 / 61019.8 4.0 1.4 6.0
2017-Jan-15 05:32N 52°06' E 004°16'1 2.2
2017-Jan-15 05:00N 52°06' E 004°18'1 2.5 020 / 61019.8 2.6 1.2 6.0
2017-Jan-15 04:32N 52°06' E 004°16'1 2.2
2017-Jan-15 04:00N 52°06' E 004°18'1 2.3 310 / 41019.2 2.6 0.3 5.9
2017-Jan-15 03:29N 52°06' E 004°16'1 2.4
2017-Jan-15 03:00N 52°06' E 004°18'1 2.5 320 / 121019.2 4.7 0.1 6.1
2017-Jan-15 02:32N 52°06' E 004°16'1 2.2
2017-Jan-15 02:00N 52°06' E 004°18'1 2.5 020 / 41019.2 3.5 1.4 6.2
2017-Jan-15 01:32N 52°06' E 004°16'1 2.2
2017-Jan-15 01:00N 52°06' E 004°18'1 2.5 340 / 61018.6 4.3 0.3 6.2
2017-Jan-15 00:32N 52°06' E 004°16'1 2.2
2017-Jan-15 00:00N 52°06' E 004°18'1 2.5 350 / 81018.6 3.0 1.1 6.2
2017-Jan-14 23:32N 52°06' E 004°16'1 2.2
2017-Jan-14 23:00N 52°06' E 004°18'1 2.5 360 / 101018.8 1.8 0.5 6.2
2017-Jan-14 22:32N 52°06' E 004°16'1 2.2
2017-Jan-14 22:00N 52°06' E 004°18'1 2.5 330 / 121017.5 4.9-0.1 6.2
2017-Jan-14 21:32N 52°06' E 004°16'1 2.2
2017-Jan-14 21:00N 52°06' E 004°18'1 2.5 020 / 41017.3 3.5 1.7 6.2
2017-Jan-14 20:32N 52°06' E 004°16'1 2.2
2017-Jan-14 20:00N 52°06' E 004°18'1 2.5 330 / 121017.0 5.0 0.3 6.1
2017-Jan-14 19:32N 52°06' E 004°16'1 2.2
2017-Jan-14 19:00N 52°06' E 004°18'1 2.5 320 / 121016.3 5.1 0.9 6.0
2017-Jan-14 18:32N 52°06' E 004°16'1 2.2
2017-Jan-14 18:00N 52°06' E 004°18'1 2.5 320 / 191016.1 4.0 0.5 5.9
2017-Jan-14 17:32N 52°06' E 004°16'1 2.2
2017-Jan-14 17:00N 52°06' E 004°18'1 2.3 320 / 191015.7 4.7 0.6 6.0
2017-Jan-14 16:29N 52°06' E 004°16'1 2.4
2017-Jan-14 16:00N 52°06' E 004°18'1 2.5 310 / 211014.9 5.0-0.9 6.1
2017-Jan-14 15:32N 52°06' E 004°16'1 2.2
2017-Jan-14 15:00N 52°06' E 004°18'1 2.3 320 / 161014.4 5.5-1.5 6.2
2017-Jan-14 14:29N 52°06' E 004°16'1 2.4
2017-Jan-14 14:00N 52°06' E 004°18'1 2.5 340 / 81014.0 5.4-0.1 6.3
2017-Jan-14 13:32N 52°06' E 004°16'1 2.2
2017-Jan-14 13:00N 52°06' E 004°18'1 2.1 350 / 141013.3 5.1 1.3 6.3
2017-Jan-14 12:26N 52°06' E 004°16'1 2.7
2017-Jan-14 12:00N 52°06' E 004°18'1 2.5 320 / 161012.7 3.2 2.2 6.1
2017-Jan-14 11:32N 52°06' E 004°16'1 2.2
2017-Jan-14 11:00N 52°06' E 004°18'   280 / 161012.5 4.6 1.7 6.3

Dump ship's entire track history